sensor_id;sensor_type;location;lat;lon;timestamp;temperature;humidity
49148;DHT22;41980;45.550;12.070;2023-05-20T00:04:29;17.60;64.20
49148;DHT22;41980;45.550;12.070;2023-05-20T00:10:31;17.60;64.10
49148;DHT22;41980;45.550;12.070;2023-05-20T00:16:33;17.60;64.10
49148;DHT22;41980;45.550;12.070;2023-05-20T00:22:35;17.70;64.00
49148;DHT22;41980;45.550;12.070;2023-05-20T00:28:37;17.70;63.90
49148;DHT22;41980;45.550;12.070;2023-05-20T00:34:41;17.70;63.90
49148;DHT22;41980;45.550;12.070;2023-05-20T00:40:43;17.70;64.10
49148;DHT22;41980;45.550;12.070;2023-05-20T00:46:47;17.70;63.90
49148;DHT22;41980;45.550;12.070;2023-05-20T00:52:50;17.70;63.70
49148;DHT22;41980;45.550;12.070;2023-05-20T00:58:53;17.70;63.70
49148;DHT22;41980;45.550;12.070;2023-05-20T01:04:55;17.70;64.00
49148;DHT22;41980;45.550;12.070;2023-05-20T01:11:05;17.80;63.70
49148;DHT22;41980;45.550;12.070;2023-05-20T01:17:08;17.70;63.80
49148;DHT22;41980;45.550;12.070;2023-05-20T01:23:13;17.80;63.70
49148;DHT22;41980;45.550;12.070;2023-05-20T01:29:16;17.80;63.80
49148;DHT22;41980;45.550;12.070;2023-05-20T01:35:19;17.80;63.70
49148;DHT22;41980;45.550;12.070;2023-05-20T01:41:25;17.80;63.60
49148;DHT22;41980;45.550;12.070;2023-05-20T01:47:28;17.80;63.50
49148;DHT22;41980;45.550;12.070;2023-05-20T01:53:30;17.80;63.60
49148;DHT22;41980;45.550;12.070;2023-05-20T01:59:32;17.80;63.40
49148;DHT22;41980;45.550;12.070;2023-05-20T02:05:34;17.80;63.40
49148;DHT22;41980;45.550;12.070;2023-05-20T02:11:39;17.80;63.30
49148;DHT22;41980;45.550;12.070;2023-05-20T02:17:41;17.80;63.20
49148;DHT22;41980;45.550;12.070;2023-05-20T02:23:44;17.80;63.30
49148;DHT22;41980;45.550;12.070;2023-05-20T02:29:46;17.70;63.20
49148;DHT22;41980;45.550;12.070;2023-05-20T02:35:48;17.70;63.40
49148;DHT22;41980;45.550;12.070;2023-05-20T02:41:50;17.50;63.40
49148;DHT22;41980;45.550;12.070;2023-05-20T02:47:52;17.50;63.50
49148;DHT22;41980;45.550;12.070;2023-05-20T02:53:54;17.50;63.60
49148;DHT22;41980;45.550;12.070;2023-05-20T02:59:56;17.40;63.90
49148;DHT22;41980;45.550;12.070;2023-05-20T03:05:58;17.40;63.50
49148;DHT22;41980;45.550;12.070;2023-05-20T03:12:00;17.40;63.70
49148;DHT22;41980;45.550;12.070;2023-05-20T03:18:02;17.20;63.60
49148;DHT22;41980;45.550;12.070;2023-05-20T03:24:04;17.30;64.10
49148;DHT22;41980;45.550;12.070;2023-05-20T03:30:07;17.10;64.10
49148;DHT22;41980;45.550;12.070;2023-05-20T03:36:10;17.10;64.00
49148;DHT22;41980;45.550;12.070;2023-05-20T03:42:12;17.00;64.10
49148;DHT22;41980;45.550;12.070;2023-05-20T03:48:14;17.00;64.10
49148;DHT22;41980;45.550;12.070;2023-05-20T03:54:18;17.00;64.30
49148;DHT22;41980;45.550;12.070;2023-05-20T04:00:24;17.00;64.00
49148;DHT22;41980;45.550;12.070;2023-05-20T04:06:27;17.00;64.10
49148;DHT22;41980;45.550;12.070;2023-05-20T04:12:31;17.10;64.00
49148;DHT22;41980;45.550;12.070;2023-05-20T04:18:34;17.10;64.60
49148;DHT22;41980;45.550;12.070;2023-05-20T04:24:40;17.10;64.30
49148;DHT22;41980;45.550;12.070;2023-05-20T04:30:43;17.20;64.50
49148;DHT22;41980;45.550;12.070;2023-05-20T04:36:47;17.30;64.50
49148;DHT22;41980;45.550;12.070;2023-05-20T04:42:49;17.30;64.30
49148;DHT22;41980;45.550;12.070;2023-05-20T04:48:52;17.30;64.10
49148;DHT22;41980;45.550;12.070;2023-05-20T04:54:54;17.30;64.60
49148;DHT22;41980;45.550;12.070;2023-05-20T05:00:59;17.40;64.10
49148;DHT22;41980;45.550;12.070;2023-05-20T05:07:02;17.50;63.90
49148;DHT22;41980;45.550;12.070;2023-05-20T05:13:07;17.70;63.70
49148;DHT22;41980;45.550;12.070;2023-05-20T05:19:09;18.00;63.50
49148;DHT22;41980;45.550;12.070;2023-05-20T05:25:14;18.30;63.20
49148;DHT22;41980;45.550;12.070;2023-05-20T05:31:16;18.60;62.80
49148;DHT22;41980;45.550;12.070;2023-05-20T05:37:21;19.00;62.50
49148;DHT22;41980;45.550;12.070;2023-05-20T05:43:23;19.60;61.40
49148;DHT22;41980;45.550;12.070;2023-05-20T05:49:26;20.00;60.40
49148;DHT22;41980;45.550;12.070;2023-05-20T05:55:28;19.70;60.80
49148;DHT22;41980;45.550;12.070;2023-05-20T06:01:30;19.40;61.50
49148;DHT22;41980;45.550;12.070;2023-05-20T06:07:32;19.30;61.60
49148;DHT22;41980;45.550;12.070;2023-05-20T06:13:35;19.20;61.80
49148;DHT22;41980;45.550;12.070;2023-05-20T06:19:37;19.30;62.00
49148;DHT22;41980;45.550;12.070;2023-05-20T06:25:39;19.30;62.00
49148;DHT22;41980;45.550;12.070;2023-05-20T06:31:41;19.40;62.00
49148;DHT22;41980;45.550;12.070;2023-05-20T06:37:44;19.40;61.90
49148;DHT22;41980;45.550;12.070;2023-05-20T06:43:47;19.50;61.90
49148;DHT22;41980;45.550;12.070;2023-05-20T06:49:52;19.50;61.80
49148;DHT22;41980;45.550;12.070;2023-05-20T06:55:54;19.50;62.00
49148;DHT22;41980;45.550;12.070;2023-05-20T07:01:57;19.60;62.00
49148;DHT22;41980;45.550;12.070;2023-05-20T07:07:59;19.70;62.00
49148;DHT22;41980;45.550;12.070;2023-05-20T07:14:02;19.70;62.20
49148;DHT22;41980;45.550;12.070;2023-05-20T07:20:07;19.60;62.40
49148;DHT22;41980;45.550;12.070;2023-05-20T07:26:11;19.70;62.50
49148;DHT22;41980;45.550;12.070;2023-05-20T07:32:13;19.70;62.60
49148;DHT22;41980;45.550;12.070;2023-05-20T07:38:15;19.70;62.80
49148;DHT22;41980;45.550;12.070;2023-05-20T07:44:20;19.70;63.00
49148;DHT22;41980;45.550;12.070;2023-05-20T07:50:25;19.70;63.00
49148;DHT22;41980;45.550;12.070;2023-05-20T07:56:28;19.80;63.20
49148;DHT22;41980;45.550;12.070;2023-05-20T08:02:30;19.80;63.30
49148;DHT22;41980;45.550;12.070;2023-05-20T08:08:32;19.70;63.40
49148;DHT22;41980;45.550;12.070;2023-05-20T08:14:40;19.70;63.50
49148;DHT22;41980;45.550;12.070;2023-05-20T08:20:43;20.00;63.20
49148;DHT22;41980;45.550;12.070;2023-05-20T08:26:45;20.30;62.50
49148;DHT22;41980;45.550;12.070;2023-05-20T08:32:47;20.30;62.10
49148;DHT22;41980;45.550;12.070;2023-05-20T08:38:50;20.20;62.40
49148;DHT22;41980;45.550;12.070;2023-05-20T08:44:53;20.20;62.50
49148;DHT22;41980;45.550;12.070;2023-05-20T08:50:57;20.30;62.40
49148;DHT22;41980;45.550;12.070;2023-05-20T08:56:59;20.40;62.50
49148;DHT22;41980;45.550;12.070;2023-05-20T09:03:01;20.50;62.00
49148;DHT22;41980;45.550;12.070;2023-05-20T09:09:03;20.70;61.90
49148;DHT22;41980;45.550;12.070;2023-05-20T09:15:06;20.90;61.60
49148;DHT22;41980;45.550;12.070;2023-05-20T09:21:09;21.20;61.10
49148;DHT22;41980;45.550;12.070;2023-05-20T09:27:12;21.10;60.80
49148;DHT22;41980;45.550;12.070;2023-05-20T09:33:14;21.10;60.80
49148;DHT22;41980;45.550;12.070;2023-05-20T09:39:27;21.00;60.90
49148;DHT22;41980;45.550;12.070;2023-05-20T09:45:31;21.00;61.20
49148;DHT22;41980;45.550;12.070;2023-05-20T09:51:34;20.90;61.30
49148;DHT22;41980;45.550;12.070;2023-05-20T09:57:36;20.80;61.50
49148;DHT22;41980;45.550;12.070;2023-05-20T10:03:39;20.80;61.80
49148;DHT22;41980;45.550;12.070;2023-05-20T10:15:53;20.70;64.30
49148;DHT22;41980;45.550;12.070;2023-05-20T10:22:00;20.80;63.40
49148;DHT22;41980;45.550;12.070;2023-05-20T10:28:06;21.10;63.20
49148;DHT22;41980;45.550;12.070;2023-05-20T10:34:14;21.20;62.80
49148;DHT22;41980;45.550;12.070;2023-05-20T10:40:19;21.20;62.50
49148;DHT22;41980;45.550;12.070;2023-05-20T10:46:22;21.20;62.10
49148;DHT22;41980;45.550;12.070;2023-05-20T10:52:24;21.10;62.30
49148;DHT22;41980;45.550;12.070;2023-05-20T10:58:26;21.10;62.20
49148;DHT22;41980;45.550;12.070;2023-05-20T11:04:29;20.90;62.70
49148;DHT22;41980;45.550;12.070;2023-05-20T11:10:34;20.70;63.70
49148;DHT22;41980;45.550;12.070;2023-05-20T11:16:37;20.70;65.40
49148;DHT22;41980;45.550;12.070;2023-05-20T11:22:39;20.70;64.90
49148;DHT22;41980;45.550;12.070;2023-05-20T11:28:42;20.80;64.70
49148;DHT22;41980;45.550;12.070;2023-05-20T11:34:44;20.90;65.00
49148;DHT22;41980;45.550;12.070;2023-05-20T11:40:52;21.00;65.00
49148;DHT22;41980;45.550;12.070;2023-05-20T11:46:59;21.30;65.00
49148;DHT22;41980;45.550;12.070;2023-05-20T11:53:02;21.40;64.70
49148;DHT22;41980;45.550;12.070;2023-05-20T11:59:05;21.30;64.30
49148;DHT22;41980;45.550;12.070;2023-05-20T12:05:08;21.10;64.70
49148;DHT22;41980;45.550;12.070;2023-05-20T12:11:10;20.80;65.60
49148;DHT22;41980;45.550;12.070;2023-05-20T12:17:12;20.80;65.80
49148;DHT22;41980;45.550;12.070;2023-05-20T12:23:14;20.90;66.20
49148;DHT22;41980;45.550;12.070;2023-05-20T12:29:16;21.10;65.60
49148;DHT22;41980;45.550;12.070;2023-05-20T12:35:25;21.10;65.80
49148;DHT22;41980;45.550;12.070;2023-05-20T12:41:37;21.10;65.80
49148;DHT22;41980;45.550;12.070;2023-05-20T12:47:39;21.10;65.80
49148;DHT22;41980;45.550;12.070;2023-05-20T12:53:41;21.20;65.90
49148;DHT22;41980;45.550;12.070;2023-05-20T12:59:44;21.30;65.70
49148;DHT22;41980;45.550;12.070;2023-05-20T13:05:46;21.40;65.70
49148;DHT22;41980;45.550;12.070;2023-05-20T13:11:48;21.40;65.90
49148;DHT22;41980;45.550;12.070;2023-05-20T13:17:50;21.50;66.00
49148;DHT22;41980;45.550;12.070;2023-05-20T13:23:52;21.50;65.80
49148;DHT22;41980;45.550;12.070;2023-05-20T13:29:54;21.50;66.00
49148;DHT22;41980;45.550;12.070;2023-05-20T13:35:56;21.40;65.70
49148;DHT22;41980;45.550;12.070;2023-05-20T13:42:00;21.40;66.00
49148;DHT22;41980;45.550;12.070;2023-05-20T13:48:02;21.50;66.30
49148;DHT22;41980;45.550;12.070;2023-05-20T13:54:04;21.50;66.10
49148;DHT22;41980;45.550;12.070;2023-05-20T14:00:08;21.70;66.00
49148;DHT22;41980;45.550;12.070;2023-05-20T14:06:10;21.90;66.40
49148;DHT22;41980;45.550;12.070;2023-05-20T14:12:13;22.10;66.00
49148;DHT22;41980;45.550;12.070;2023-05-20T14:24:20;22.40;65.80
49148;DHT22;41980;45.550;12.070;2023-05-20T14:30:22;22.40;65.50
49148;DHT22;41980;45.550;12.070;2023-05-20T14:36:24;22.40;65.50
49148;DHT22;41980;45.550;12.070;2023-05-20T14:42:26;22.40;65.40
49148;DHT22;41980;45.550;12.070;2023-05-20T14:48:28;22.50;65.30
49148;DHT22;41980;45.550;12.070;2023-05-20T14:54:30;22.60;65.10
49148;DHT22;41980;45.550;12.070;2023-05-20T15:00:33;22.50;65.00
49148;DHT22;41980;45.550;12.070;2023-05-20T15:06:35;22.60;65.00
49148;DHT22;41980;45.550;12.070;2023-05-20T15:12:37;22.70;64.80
49148;DHT22;41980;45.550;12.070;2023-05-20T15:18:39;22.60;64.70
49148;DHT22;41980;45.550;12.070;2023-05-20T15:24:41;22.60;64.70
49148;DHT22;41980;45.550;12.070;2023-05-20T15:30:45;22.60;64.70
49148;DHT22;41980;45.550;12.070;2023-05-20T15:36:47;22.60;64.70
49148;DHT22;41980;45.550;12.070;2023-05-20T15:42:49;22.50;64.90
49148;DHT22;41980;45.550;12.070;2023-05-20T15:48:52;22.40;64.80
49148;DHT22;41980;45.550;12.070;2023-05-20T15:54:56;22.30;64.90
49148;DHT22;41980;45.550;12.070;2023-05-20T16:00:59;22.30;64.90
49148;DHT22;41980;45.550;12.070;2023-05-20T16:07:01;22.40;64.90
49148;DHT22;41980;45.550;12.070;2023-05-20T16:13:03;22.50;64.80
49148;DHT22;41980;45.550;12.070;2023-05-20T16:19:05;22.50;64.80
49148;DHT22;41980;45.550;12.070;2023-05-20T16:25:07;22.40;64.80
49148;DHT22;41980;45.550;12.070;2023-05-20T16:31:11;22.20;65.10
49148;DHT22;41980;45.550;12.070;2023-05-20T16:37:14;21.90;65.80
49148;DHT22;41980;45.550;12.070;2023-05-20T16:43:16;21.70;66.00
49148;DHT22;41980;45.550;12.070;2023-05-20T16:49:18;21.50;66.50
49148;DHT22;41980;45.550;12.070;2023-05-20T16:55:20;21.30;66.60
49148;DHT22;41980;45.550;12.070;2023-05-20T17:01:22;21.20;66.50
49148;DHT22;41980;45.550;12.070;2023-05-20T17:07:25;21.10;66.70
49148;DHT22;41980;45.550;12.070;2023-05-20T17:13:27;21.00;66.60
49148;DHT22;41980;45.550;12.070;2023-05-20T17:19:29;20.90;66.70
49148;DHT22;41980;45.550;12.070;2023-05-20T17:25:31;20.90;66.80
49148;DHT22;41980;45.550;12.070;2023-05-20T17:31:33;20.80;67.50
49148;DHT22;41980;45.550;12.070;2023-05-20T17:37:35;20.70;66.80
49148;DHT22;41980;45.550;12.070;2023-05-20T17:43:38;20.70;67.00
49148;DHT22;41980;45.550;12.070;2023-05-20T17:49:40;20.60;67.50
49148;DHT22;41980;45.550;12.070;2023-05-20T17:55:42;20.50;67.30
49148;DHT22;41980;45.550;12.070;2023-05-20T18:01:47;20.40;67.20
49148;DHT22;41980;45.550;12.070;2023-05-20T18:07:50;20.40;67.20
49148;DHT22;41980;45.550;12.070;2023-05-20T18:13:53;20.30;67.00
49148;DHT22;41980;45.550;12.070;2023-05-20T18:19:55;20.20;67.10
49148;DHT22;41980;45.550;12.070;2023-05-20T18:25:57;20.10;67.00
49148;DHT22;41980;45.550;12.070;2023-05-20T18:31:59;20.00;66.90
49148;DHT22;41980;45.550;12.070;2023-05-20T18:38:01;19.90;67.10
49148;DHT22;41980;45.550;12.070;2023-05-20T18:44:04;19.90;67.00
49148;DHT22;41980;45.550;12.070;2023-05-20T18:50:06;19.80;67.10
49148;DHT22;41980;45.550;12.070;2023-05-20T18:56:09;19.80;67.00
49148;DHT22;41980;45.550;12.070;2023-05-20T19:02:11;19.70;66.90
49148;DHT22;41980;45.550;12.070;2023-05-20T19:08:13;19.80;66.80
49148;DHT22;41980;45.550;12.070;2023-05-20T19:14:15;19.80;66.90
49148;DHT22;41980;45.550;12.070;2023-05-20T19:20:18;19.70;66.80
49148;DHT22;41980;45.550;12.070;2023-05-20T19:26:20;19.70;67.00
49148;DHT22;41980;45.550;12.070;2023-05-20T19:32:22;19.60;67.00
49148;DHT22;41980;45.550;12.070;2023-05-20T19:38:25;19.50;67.00
49148;DHT22;41980;45.550;12.070;2023-05-20T19:44:27;19.50;67.60
49148;DHT22;41980;45.550;12.070;2023-05-20T19:50:29;19.50;67.40
49148;DHT22;41980;45.550;12.070;2023-05-20T19:56:32;19.40;67.50
49148;DHT22;41980;45.550;12.070;2023-05-20T20:02:34;19.40;67.20
49148;DHT22;41980;45.550;12.070;2023-05-20T20:08:36;19.40;67.60
49148;DHT22;41980;45.550;12.070;2023-05-20T20:14:40;19.30;67.20
49148;DHT22;41980;45.550;12.070;2023-05-20T20:20:42;19.30;67.30
49148;DHT22;41980;45.550;12.070;2023-05-20T20:26:45;19.30;67.70
49148;DHT22;41980;45.550;12.070;2023-05-20T20:32:48;19.30;67.80
49148;DHT22;41980;45.550;12.070;2023-05-20T20:38:50;19.20;67.50
49148;DHT22;41980;45.550;12.070;2023-05-20T20:44:52;19.20;67.50
49148;DHT22;41980;45.550;12.070;2023-05-20T20:50:54;19.10;67.50
49148;DHT22;41980;45.550;12.070;2023-05-20T20:56:57;19.20;67.70
49148;DHT22;41980;45.550;12.070;2023-05-20T21:03:00;19.20;68.30
49148;DHT22;41980;45.550;12.070;2023-05-20T21:09:02;19.10;68.10
49148;DHT22;41980;45.550;12.070;2023-05-20T21:15:05;19.00;68.20
49148;DHT22;41980;45.550;12.070;2023-05-20T21:21:08;19.00;68.20
49148;DHT22;41980;45.550;12.070;2023-05-20T21:27:13;19.00;68.80
49148;DHT22;41980;45.550;12.070;2023-05-20T21:33:15;19.00;68.80
49148;DHT22;41980;45.550;12.070;2023-05-20T21:39:17;19.00;70.00
49148;DHT22;41980;45.550;12.070;2023-05-20T21:45:19;18.90;69.50
49148;DHT22;41980;45.550;12.070;2023-05-20T21:51:21;18.90;69.40
49148;DHT22;41980;45.550;12.070;2023-05-20T21:57:23;18.90;69.50
49148;DHT22;41980;45.550;12.070;2023-05-20T22:03:25;18.90;69.30
49148;DHT22;41980;45.550;12.070;2023-05-20T22:09:27;18.80;69.80
49148;DHT22;41980;45.550;12.070;2023-05-20T22:15:30;18.80;69.60
49148;DHT22;41980;45.550;12.070;2023-05-20T22:21:32;18.80;69.60
49148;DHT22;41980;45.550;12.070;2023-05-20T22:27:34;18.80;69.80
49148;DHT22;41980;45.550;12.070;2023-05-20T22:33:36;18.80;69.70
49148;DHT22;41980;45.550;12.070;2023-05-20T22:39:42;18.90;69.80
49148;DHT22;41980;45.550;12.070;2023-05-20T22:45:44;18.90;69.50
49148;DHT22;41980;45.550;12.070;2023-05-20T22:51:46;19.00;69.30
49148;DHT22;41980;45.550;12.070;2023-05-20T22:57:49;19.00;69.20
49148;DHT22;41980;45.550;12.070;2023-05-20T23:03:51;19.00;69.00
49148;DHT22;41980;45.550;12.070;2023-05-20T23:09:54;19.00;69.00
49148;DHT22;41980;45.550;12.070;2023-05-20T23:15:56;19.00;68.70
49148;DHT22;41980;45.550;12.070;2023-05-20T23:21:58;19.00;68.60
49148;DHT22;41980;45.550;12.070;2023-05-20T23:28:00;19.00;68.50
49148;DHT22;41980;45.550;12.070;2023-05-20T23:34:02;19.00;68.50
49148;DHT22;41980;45.550;12.070;2023-05-20T23:40:05;19.00;68.40
49148;DHT22;41980;45.550;12.070;2023-05-20T23:46:09;18.90;68.50
49148;DHT22;41980;45.550;12.070;2023-05-20T23:52:12;18.90;68.50
49148;DHT22;41980;45.550;12.070;2023-05-20T23:58:14;18.80;68.50
